createdAt,value
2019-02-05T00:01:48.850Z,9.13
2019-02-05T00:04:19.148Z,8.87
2019-02-05T00:06:49.511Z,9.17
2019-02-05T00:09:19.755Z,8.60
2019-02-05T00:11:49.977Z,8.20
2019-02-05T00:14:20.352Z,8.17
2019-02-05T00:16:50.600Z,9.13
2019-02-05T00:19:20.971Z,7.87
2019-02-05T00:21:51.206Z,7.83
2019-02-05T00:24:21.440Z,8.97
2019-02-05T00:26:51.778Z,7.90
2019-02-05T00:29:22.149Z,7.60
2019-02-05T00:31:52.353Z,7.60
2019-02-05T00:34:22.621Z,8.10
2019-02-05T00:36:52.898Z,8.33
2019-02-05T00:39:24.178Z,9.07
2019-02-05T00:41:54.764Z,9.43
2019-02-05T00:44:25.016Z,7.97
2019-02-05T00:46:55.208Z,8.33
2019-02-05T00:49:25.439Z,8.33
2019-02-05T00:51:56.734Z,9.73
2019-02-05T00:54:26.986Z,8.73
2019-02-05T00:56:57.265Z,8.40
2019-02-05T00:59:27.482Z,8.90
2019-02-05T01:01:58.094Z,9.37
2019-02-05T01:04:28.301Z,9.20
2019-02-05T01:06:59.866Z,9.00
2019-02-05T01:09:30.401Z,8.83
2019-02-05T01:12:00.762Z,9.93
2019-02-05T01:14:31.169Z,9.13
2019-02-05T01:17:01.503Z,9.43
2019-02-05T01:19:31.713Z,9.13
2019-02-05T01:22:01.962Z,9.37
2019-02-05T01:24:32.193Z,8.50
2019-02-05T01:27:02.458Z,10.23
2019-02-05T01:29:33.384Z,9.63
2019-02-05T01:32:03.609Z,9.27
2019-02-05T01:34:33.831Z,10.60
2019-02-05T01:37:04.117Z,9.33
2019-02-05T01:39:34.286Z,8.93
2019-02-05T01:42:04.475Z,9.13
2019-02-05T01:44:34.689Z,9.37
2019-02-05T01:47:05.291Z,9.53
2019-02-05T01:49:36.010Z,11.17
2019-02-05T01:52:06.459Z,8.97
2019-02-05T01:54:36.683Z,9.77
2019-02-05T01:57:06.927Z,9.43
2019-02-05T01:59:37.180Z,10.13
2019-02-05T02:02:07.675Z,9.97
2019-02-05T02:04:38.064Z,9.60
2019-02-05T02:07:08.849Z,10.50
2019-02-05T02:09:39.151Z,10.57
2019-02-05T02:12:09.415Z,10.40
2019-02-05T02:14:39.633Z,8.23
2019-02-05T02:17:10.218Z,8.67
2019-02-05T02:19:40.496Z,10.43
2019-02-05T02:22:10.691Z,8.97
2019-02-05T02:24:40.957Z,9.07
2019-02-05T02:27:11.160Z,9.97
2019-02-05T02:29:41.377Z,9.13
2019-02-05T02:32:11.886Z,8.13
2019-02-05T02:34:42.131Z,9.43
2019-02-05T02:37:12.329Z,9.43
2019-02-05T02:39:42.693Z,9.10
2019-02-05T02:42:12.912Z,9.57
2019-02-05T02:44:43.196Z,9.13
2019-02-05T02:47:13.396Z,9.57
2019-02-05T02:49:43.603Z,8.87
2019-02-05T02:52:13.824Z,9.37
2019-02-05T02:54:44.093Z,9.80
2019-02-05T02:57:14.310Z,9.70
2019-02-05T02:59:44.798Z,8.70
2019-02-05T03:02:15.265Z,9.30
2019-02-05T03:04:45.523Z,9.87
2019-02-05T03:07:15.869Z,10.23
2019-02-05T03:09:46.120Z,8.60
2019-02-05T03:12:16.310Z,9.10
2019-02-05T03:14:46.864Z,8.87
2019-02-05T03:17:17.075Z,7.93
2019-02-05T03:19:47.253Z,9.67
2019-02-05T03:22:17.519Z,10.07
2019-02-05T03:24:47.744Z,9.20
2019-02-05T03:27:18.542Z,10.77
2019-02-05T03:29:48.861Z,9.40
2019-02-05T03:32:19.337Z,9.20
2019-02-05T03:34:49.543Z,8.70
2019-02-05T03:37:20.941Z,10.23
2019-02-05T03:39:51.166Z,8.83
2019-02-05T03:42:21.443Z,9.80
2019-02-05T03:44:51.654Z,9.40
2019-02-05T03:47:21.936Z,8.00
2019-02-05T03:49:52.951Z,9.10
2019-02-05T03:52:29.668Z,8.87
2019-02-05T03:55:27.883Z,8.97
2019-02-05T03:58:20.187Z,9.17
2019-02-05T04:01:30.092Z,9.83
2019-02-05T04:04:28.458Z,9.77
2019-02-05T04:07:30.684Z,10.27
2019-02-05T04:10:46.184Z,10.00
2019-02-05T04:13:52.174Z,10.63
2019-02-05T04:16:49.856Z,9.47
2019-02-05T04:20:04.109Z,9.23
2019-02-05T04:23:09.944Z,10.97
2019-02-05T04:26:26.517Z,9.87
2019-02-05T04:29:27.830Z,9.60
2019-02-05T04:32:54.213Z,13.70
2019-02-05T04:36:01.266Z,10.83
2019-02-05T04:39:15.201Z,10.40
2019-02-05T04:42:20.459Z,13.37
2019-02-05T04:45:34.094Z,11.83
2019-02-05T04:48:45.218Z,11.30
2019-02-05T04:52:08.277Z,12.20
2019-02-05T04:55:31.447Z,10.43
2019-02-05T04:58:51.815Z,11.17
2019-02-05T05:01:43.320Z,12.70
2019-02-05T05:04:50.259Z,11.03
2019-02-05T05:07:48.485Z,10.43
2019-02-05T05:10:18.719Z,11.17
2019-02-05T05:12:48.932Z,12.10
2019-02-05T05:15:19.352Z,13.17
2019-02-05T05:17:49.609Z,12.77
2019-02-05T05:20:19.897Z,11.73
2019-02-05T05:22:50.943Z,11.13
2019-02-05T05:25:21.493Z,10.77
2019-02-05T05:27:54.891Z,10.27
2019-02-05T05:30:25.232Z,11.57
2019-02-05T05:32:55.448Z,10.60
2019-02-05T05:35:27.100Z,11.60
2019-02-05T05:37:57.920Z,11.33
2019-02-05T05:40:28.123Z,11.80
2019-02-05T05:42:58.373Z,11.90
2019-02-05T05:45:28.687Z,12.83
2019-02-05T05:47:58.901Z,12.50
2019-02-05T05:50:29.468Z,11.50
2019-02-05T05:52:59.717Z,12.70
2019-02-05T05:55:29.913Z,13.70
2019-02-05T05:58:00.313Z,13.27
2019-02-05T06:00:30.495Z,14.27
2019-02-05T06:03:00.670Z,11.93
2019-02-05T06:05:31.663Z,10.40
2019-02-05T06:08:01.912Z,10.77
2019-02-05T06:10:32.153Z,10.23
2019-02-05T06:13:02.381Z,10.70
2019-02-05T06:15:32.571Z,11.50
2019-02-05T06:18:02.895Z,11.47
2019-02-05T06:20:34.861Z,10.73
2019-02-05T06:23:05.076Z,10.73
2019-02-05T06:25:35.307Z,10.87
2019-02-05T06:28:05.824Z,10.40
2019-02-05T06:30:36.121Z,10.27
2019-02-05T06:33:08.706Z,9.23
2019-02-05T06:35:39.278Z,9.47
2019-02-05T06:38:09.521Z,9.57
2019-02-05T06:40:39.689Z,8.77
2019-02-05T06:43:10.981Z,9.37
2019-02-05T06:45:41.796Z,10.30
2019-02-05T06:48:12.256Z,8.60
2019-02-05T06:50:43.206Z,9.53
2019-02-05T06:53:13.872Z,9.57
2019-02-05T06:55:44.076Z,9.57
2019-02-05T06:58:14.324Z,9.93
2019-02-05T07:00:44.729Z,10.97
2019-02-05T07:03:15.450Z,10.27
2019-02-05T07:05:46.007Z,9.30
2019-02-05T07:08:16.263Z,9.83
2019-02-05T07:10:46.509Z,9.90
2019-02-05T07:13:16.826Z,9.73
2019-02-05T07:15:47.147Z,10.00
2019-02-05T07:18:17.769Z,9.43
2019-02-05T07:20:48.041Z,9.97
2019-02-05T07:23:18.288Z,10.43
2019-02-05T07:25:48.723Z,10.80
2019-02-05T07:28:19.020Z,9.67
2019-02-05T07:30:49.564Z,10.50
2019-02-05T07:33:20.442Z,10.70
2019-02-05T07:35:50.737Z,9.57
2019-02-05T07:38:21.091Z,10.27
2019-02-05T07:40:52.414Z,9.00
2019-02-05T07:43:22.742Z,9.60
2019-02-05T07:45:53.049Z,13.30
2019-02-05T07:48:23.460Z,10.33
2019-02-05T07:50:53.740Z,10.33
2019-02-05T07:53:24.024Z,11.13
2019-02-05T07:55:54.360Z,10.97
2019-02-05T07:58:24.658Z,9.93
2019-02-05T08:00:54.974Z,10.87
2019-02-05T08:03:25.187Z,9.60
2019-02-05T08:05:56.146Z,9.97
2019-02-05T08:08:26.613Z,10.40
2019-02-05T08:10:56.929Z,10.13
2019-02-05T08:13:27.393Z,9.17
2019-02-05T08:15:57.780Z,9.27
2019-02-05T08:18:28.149Z,9.97
2019-02-05T08:20:58.525Z,10.37
2019-02-05T08:23:29.559Z,9.53
2019-02-05T08:25:59.957Z,8.87
2019-02-05T08:28:40.633Z,8.10
2019-02-05T08:31:02.479Z,8.70
2019-02-05T08:33:32.723Z,8.70
2019-02-05T08:36:04.826Z,9.27
2019-02-05T08:38:35.125Z,8.60
2019-02-05T08:41:06.484Z,10.15
2019-02-05T08:43:37.000Z,8.47
2019-02-05T08:46:08.590Z,8.37
2019-02-05T08:48:38.938Z,8.87
2019-02-05T08:51:09.311Z,8.13
2019-02-05T08:53:42.820Z,8.33
2019-02-05T08:56:17.262Z,8.77
2019-02-05T08:58:52.967Z,8.10
2019-02-05T09:01:29.756Z,9.17
2019-02-05T09:04:00.481Z,9.03
2019-02-05T09:06:35.436Z,8.63
2019-02-05T09:09:09.804Z,8.67
2019-02-05T09:11:41.012Z,9.43
2019-02-05T09:14:47.362Z,9.67
2019-02-05T09:17:07.334Z,9.77
2019-02-05T09:19:37.951Z,9.20
2019-02-05T09:22:08.370Z,9.93
2019-02-05T09:24:53.964Z,8.53
2019-02-05T09:27:24.312Z,8.13
2019-02-05T09:30:05.342Z,8.73
2019-02-05T09:32:35.628Z,8.47
2019-02-05T09:35:07.014Z,8.67
2019-02-05T09:37:37.338Z,8.33
2019-02-05T09:40:10.282Z,8.13
2019-02-05T09:42:40.680Z,10.07
2019-02-05T09:45:12.819Z,8.20
2019-02-05T09:47:43.621Z,8.97
2019-02-05T09:50:14.962Z,8.17
2019-02-05T09:52:45.543Z,8.53
2019-02-05T09:55:16.332Z,9.67
2019-02-05T09:57:46.740Z,8.57
2019-02-05T10:00:19.961Z,9.03
2019-02-05T10:02:50.450Z,9.37
2019-02-05T10:05:22.950Z,8.70
2019-02-05T10:07:53.760Z,9.53
2019-02-05T10:10:24.304Z,8.73
2019-02-05T10:12:55.512Z,8.93
2019-02-05T10:15:28.466Z,8.63
2019-02-05T10:17:58.706Z,8.17
2019-02-05T10:20:29.240Z,9.13
2019-02-05T10:23:02.670Z,9.03
2019-02-05T10:25:32.969Z,10.10
2019-02-05T10:28:03.210Z,9.07
2019-02-05T10:30:36.006Z,9.17
2019-02-05T10:33:07.409Z,10.53
2019-02-05T10:35:37.679Z,9.37
2019-02-05T10:38:08.246Z,10.23
2019-02-05T10:40:38.685Z,8.43
2019-02-05T10:43:09.083Z,9.37
2019-02-05T10:45:39.624Z,9.07
2019-02-05T10:48:11.092Z,7.60
2019-02-05T10:50:41.560Z,9.17
2019-02-05T10:53:11.805Z,7.60
2019-02-05T10:55:42.209Z,8.63
2019-02-05T10:58:22.113Z,7.80
2019-02-05T11:01:13.780Z,7.97
2019-02-05T11:03:59.714Z,7.83
2019-02-05T11:06:43.158Z,6.43
2019-02-05T11:09:38.389Z,6.30
2019-02-05T11:12:17.256Z,7.50
2019-02-05T11:14:49.187Z,7.37
2019-02-05T11:17:19.669Z,8.03
2019-02-05T11:19:49.944Z,7.03
2019-02-05T11:22:20.868Z,8.33
2019-02-05T11:24:52.147Z,7.93
2019-02-05T11:27:22.461Z,8.70
2019-02-05T11:29:56.003Z,8.07
2019-02-05T11:32:27.675Z,8.70
2019-02-05T11:34:57.915Z,8.70
2019-02-05T11:37:28.465Z,8.77
2019-02-05T11:39:58.718Z,9.77
2019-02-05T11:42:29.470Z,9.17
2019-02-05T11:44:59.694Z,9.43
2019-02-05T11:47:30.283Z,8.87
2019-02-05T11:50:00.806Z,10.60
2019-02-05T11:52:32.364Z,9.23
2019-02-05T11:55:02.919Z,9.63
2019-02-05T11:57:33.673Z,9.13
2019-02-05T12:00:04.220Z,9.43
2019-02-05T12:02:36.847Z,9.13
2019-02-05T12:05:07.503Z,8.77
2019-02-05T12:07:37.858Z,10.30
2019-02-05T12:10:10.203Z,9.80
2019-02-05T12:12:40.673Z,10.03
2019-02-05T12:15:12.069Z,10.30
2019-02-05T12:17:42.489Z,10.23
2019-02-05T12:20:14.053Z,10.20
2019-02-05T12:22:44.659Z,10.67
2019-02-05T12:25:16.243Z,10.17
2019-02-05T12:27:46.676Z,10.73
2019-02-05T12:30:24.045Z,10.60
2019-02-05T12:32:54.817Z,10.00
2019-02-05T12:35:25.095Z,9.97
2019-02-05T12:37:55.753Z,10.70
2019-02-05T12:40:26.583Z,11.07
2019-02-05T12:42:57.180Z,10.33
2019-02-05T12:45:29.261Z,10.70
2019-02-05T12:48:00.127Z,10.80
2019-02-05T12:50:32.531Z,11.27
2019-02-05T12:53:03.247Z,10.27
2019-02-05T12:55:33.633Z,10.23
2019-02-05T12:58:04.313Z,11.20
2019-02-05T13:00:37.804Z,11.00
2019-02-05T13:03:10.483Z,10.63
2019-02-05T13:05:42.554Z,12.37
2019-02-05T13:08:12.949Z,11.00
2019-02-05T13:10:45.449Z,13.20
2019-02-05T13:13:18.172Z,11.00
2019-02-05T13:15:48.221Z,12.47
2019-02-05T13:18:19.839Z,11.80
2019-02-05T13:20:51.201Z,11.87
2019-02-05T13:23:21.806Z,11.93
2019-02-05T13:25:52.011Z,12.07
2019-02-05T13:28:22.550Z,12.97
2019-02-05T13:30:52.759Z,12.23
2019-02-05T13:33:23.473Z,12.50
2019-02-05T13:35:55.563Z,12.43
2019-02-05T13:38:25.931Z,12.80
2019-02-05T13:40:56.514Z,12.87
2019-02-05T13:43:26.902Z,12.60
2019-02-05T13:45:57.431Z,12.60
2019-02-05T13:48:28.050Z,13.07
2019-02-05T13:50:58.337Z,12.60
2019-02-05T13:53:28.640Z,13.40
2019-02-05T13:55:58.911Z,12.67
2019-02-05T13:58:30.715Z,12.77
2019-02-05T14:01:01.020Z,13.07
2019-02-05T14:03:31.322Z,13.30
2019-02-05T14:06:01.573Z,13.97
2019-02-05T14:08:31.940Z,13.40
2019-02-05T14:11:02.568Z,13.93
2019-02-05T14:13:33.274Z,13.07
2019-02-05T14:16:06.244Z,12.53
2019-02-05T14:18:36.567Z,13.20
2019-02-05T14:21:06.830Z,12.63
2019-02-05T14:23:37.192Z,13.43
2019-02-05T14:26:07.768Z,14.37
2019-02-05T14:28:39.512Z,13.17
2019-02-05T14:31:10.045Z,14.10
2019-02-05T14:33:40.337Z,12.50
2019-02-05T14:36:10.767Z,13.57
2019-02-05T14:38:41.416Z,14.57
2019-02-05T14:41:11.883Z,14.30
2019-02-05T14:43:45.467Z,14.43
2019-02-05T14:46:18.490Z,14.70
2019-02-05T14:49:00.519Z,14.73
2019-02-05T14:51:31.906Z,15.10
2019-02-05T14:54:12.583Z,14.23
2019-02-05T14:57:06.295Z,14.67
2019-02-05T14:59:52.026Z,14.70
2019-02-05T15:02:23.019Z,15.40
2019-02-05T15:05:03.594Z,15.93
2019-02-05T15:07:37.508Z,16.33
2019-02-05T15:10:09.949Z,15.37
2019-02-05T15:12:45.499Z,15.53
2019-02-05T15:15:18.321Z,15.30
2019-02-05T15:17:49.111Z,14.37
2019-02-05T15:20:31.174Z,15.13
2019-02-05T15:23:02.183Z,16.23
2019-02-05T15:25:36.805Z,15.53
2019-02-05T15:28:11.742Z,14.90
2019-02-05T15:30:54.871Z,14.80
2019-02-05T15:33:45.708Z,14.53
2019-02-05T15:36:35.349Z,15.50
2019-02-05T15:39:12.551Z,16.57
2019-02-05T15:41:43.049Z,14.17
2019-02-05T15:44:13.672Z,15.07
2019-02-05T15:46:44.003Z,14.83
2019-02-05T15:49:14.214Z,16.33
2019-02-05T15:51:44.629Z,16.13
2019-02-05T15:54:14.919Z,15.20
2019-02-05T15:56:46.168Z,16.73
2019-02-05T15:59:16.654Z,17.33
2019-02-05T16:01:46.983Z,16.20
2019-02-05T16:04:17.347Z,15.70
2019-02-05T16:06:47.800Z,15.00
2019-02-05T16:09:18.143Z,15.37
2019-02-05T16:11:50.384Z,14.17
2019-02-05T16:14:21.071Z,16.07
2019-02-05T16:16:51.332Z,15.07
2019-02-05T16:19:21.597Z,15.83
2019-02-05T16:21:51.936Z,14.17
2019-02-05T16:24:23.233Z,15.30
2019-02-05T16:26:54.582Z,14.40
2019-02-05T16:29:25.008Z,15.93
2019-02-05T16:31:55.260Z,17.00
2019-02-05T16:34:25.600Z,14.53
2019-02-05T16:36:55.906Z,15.93
2019-02-05T16:39:26.587Z,16.90
2019-02-05T16:41:56.857Z,15.60
2019-02-05T16:44:27.264Z,16.47
2019-02-05T16:46:57.515Z,14.63
2019-02-05T16:49:27.925Z,16.07
2019-02-05T16:51:58.491Z,15.63
2019-02-05T16:54:28.767Z,16.03
2019-02-05T16:56:59.051Z,15.30
2019-02-05T16:59:29.335Z,15.40
2019-02-05T17:02:00.581Z,16.13
2019-02-05T17:04:31.027Z,17.37
2019-02-05T17:07:01.644Z,17.17
2019-02-05T17:09:33.982Z,17.33
2019-02-05T17:12:04.419Z,16.63
2019-02-05T17:14:34.999Z,18.27
2019-02-05T17:17:05.254Z,18.70
2019-02-05T17:19:35.483Z,17.53
2019-02-05T17:22:06.218Z,19.53
2019-02-05T17:24:36.570Z,18.57
2019-02-05T17:27:07.073Z,17.83
2019-02-05T17:29:37.320Z,19.83
2019-02-05T17:32:07.939Z,19.33
2019-02-05T17:34:38.532Z,20.10
2019-02-05T17:37:08.753Z,19.23
2019-02-05T17:39:41.018Z,18.23
2019-02-05T17:42:11.440Z,18.30
2019-02-05T17:45:40.225Z,19.43
2019-02-05T17:49:06.600Z,18.70
2019-02-05T17:51:37.202Z,19.77
2019-02-05T17:54:07.774Z,19.50
2019-02-05T17:56:38.180Z,20.53
2019-02-05T17:59:08.447Z,19.37
2019-02-05T18:01:39.022Z,19.07
2019-02-05T18:04:09.374Z,18.87
2019-02-05T18:06:39.609Z,19.77
2019-02-05T18:09:10.859Z,19.33
2019-02-05T18:11:41.148Z,19.80
2019-02-05T18:14:11.409Z,19.40
2019-02-05T18:16:42.006Z,20.10
2019-02-05T18:19:12.288Z,20.93
2019-02-05T18:21:42.811Z,20.73
2019-02-05T18:24:13.122Z,22.20
2019-02-05T18:26:43.375Z,22.40
2019-02-05T18:29:13.637Z,21.60
2019-02-05T18:31:43.914Z,22.53
2019-02-05T18:34:14.883Z,21.63
2019-02-05T18:36:46.081Z,21.07
2019-02-05T18:39:16.321Z,22.33
2019-02-05T18:41:46.558Z,21.27
2019-02-05T18:44:16.914Z,22.47
2019-02-05T18:46:47.210Z,20.63
2019-02-05T18:49:17.893Z,21.87
2019-02-05T18:51:48.134Z,21.73
2019-02-05T18:54:18.399Z,21.13
2019-02-05T18:56:48.813Z,19.13
2019-02-05T18:59:19.178Z,21.57
2019-02-05T19:01:49.429Z,20.30
2019-02-05T19:04:19.913Z,18.70
2019-02-05T19:06:51.470Z,20.87
2019-02-05T19:09:21.905Z,19.13
2019-02-05T19:11:52.124Z,20.47
2019-02-05T19:14:23.331Z,23.77
2019-02-05T19:16:54.437Z,20.90
2019-02-05T19:19:24.715Z,21.40
2019-02-05T19:21:54.920Z,20.60
2019-02-05T19:24:53.128Z,20.70
2019-02-05T19:27:24.377Z,20.47
2019-02-05T19:29:55.862Z,21.30
2019-02-05T19:32:29.443Z,21.37
2019-02-05T19:35:00.715Z,20.50
2019-02-05T19:37:33.701Z,20.43
2019-02-05T19:40:07.217Z,21.20
2019-02-05T19:42:37.486Z,20.47
2019-02-05T19:45:34.603Z,24.20
2019-02-05T19:48:07.621Z,21.17
2019-02-05T19:50:39.160Z,20.97
2019-02-05T19:53:10.426Z,27.27
2019-02-05T19:55:40.787Z,27.57
2019-02-05T19:58:11.592Z,31.63
2019-02-05T20:00:43.965Z,30.27
2019-02-05T20:03:14.702Z,26.80
2019-02-05T20:05:44.953Z,26.40
2019-02-05T20:08:15.168Z,28.07
2019-02-05T20:10:46.897Z,27.53
2019-02-05T20:13:18.290Z,26.03
2019-02-05T20:15:51.262Z,25.10
2019-02-05T20:18:21.907Z,29.47
2019-02-05T20:20:52.189Z,29.80
2019-02-05T20:23:22.405Z,28.47
2019-02-05T20:25:52.746Z,30.50
2019-02-05T20:28:23.219Z,34.80
2019-02-05T20:30:56.062Z,35.43
2019-02-05T20:33:27.891Z,33.60
2019-02-05T20:35:58.472Z,26.80
2019-02-05T20:38:30.551Z,32.87
2019-02-05T20:41:02.331Z,36.10
2019-02-05T20:43:34.798Z,28.77
2019-02-05T20:46:05.407Z,29.20
2019-02-05T20:48:35.607Z,32.23
2019-02-05T20:51:05.939Z,30.33
2019-02-05T20:53:37.532Z,27.37
2019-02-05T20:56:08.160Z,32.33
2019-02-05T20:58:40.010Z,28.63
2019-02-05T21:01:10.246Z,29.30
2019-02-05T21:03:40.677Z,30.63
2019-02-05T21:06:13.019Z,31.07
2019-02-05T21:08:43.227Z,27.40
2019-02-05T21:11:14.929Z,25.87
2019-02-05T21:13:48.581Z,23.87
2019-02-05T21:16:20.108Z,28.67
2019-02-05T21:18:53.485Z,29.20
2019-02-05T21:21:23.820Z,33.80
2019-02-05T21:23:54.146Z,31.63
2019-02-05T21:26:40.005Z,32.03
2019-02-05T21:29:12.459Z,27.57
2019-02-05T21:31:43.003Z,27.40
2019-02-05T21:34:16.028Z,24.80
2019-02-05T21:36:45.259Z,22.67
2019-02-05T21:39:15.968Z,25.07
2019-02-05T21:41:46.369Z,22.90
2019-02-05T21:44:16.587Z,25.03
2019-02-05T21:46:46.919Z,27.27
2019-02-05T21:49:17.181Z,24.83
2019-02-05T21:51:47.442Z,24.63
2019-02-05T21:54:19.377Z,23.33
2019-02-05T21:56:49.647Z,23.40
2019-02-05T21:59:19.951Z,24.77
2019-02-05T22:01:50.622Z,27.87
2019-02-05T22:04:27.260Z,28.00
2019-02-05T22:06:52.954Z,25.67
2019-02-05T22:09:23.249Z,27.13
2019-02-05T22:11:53.582Z,25.93
2019-02-05T22:14:23.972Z,26.03
2019-02-05T22:16:54.680Z,25.07
2019-02-05T22:19:27.128Z,26.63
2019-02-05T22:21:57.407Z,25.13
2019-02-05T22:24:27.654Z,22.87
2019-02-05T22:26:58.054Z,25.77
2019-02-05T22:29:28.299Z,28.20
2019-02-05T22:31:58.573Z,26.57
2019-02-05T22:34:38.831Z,26.87
2019-02-05T22:37:08.477Z,28.87
2019-02-05T22:39:40.377Z,29.37
2019-02-05T22:42:11.612Z,27.13
2019-02-05T22:44:42.166Z,26.67
2019-02-05T22:47:54.838Z,30.67
2019-02-05T22:50:26.559Z,29.00
2019-02-05T22:52:56.988Z,29.13
2019-02-05T22:55:27.280Z,29.23
2019-02-05T22:57:57.707Z,31.43
2019-02-05T23:00:52.075Z,28.50
2019-02-05T23:03:49.688Z,30.43
2019-02-05T23:06:48.365Z,27.03
2019-02-05T23:09:45.380Z,29.40
2019-02-05T23:12:28.288Z,31.63
2019-02-05T23:15:02.212Z,30.83
2019-02-05T23:17:32.442Z,35.30
2019-02-05T23:20:03.073Z,28.07
2019-02-05T23:22:33.337Z,28.50
2019-02-05T23:25:05.682Z,23.63
2019-02-05T23:27:35.959Z,27.03
2019-02-05T23:30:11.924Z,26.60
2019-02-05T23:32:42.201Z,26.47
2019-02-05T23:35:12.485Z,24.70
2019-02-05T23:37:42.715Z,23.97
2019-02-05T23:40:13.146Z,23.83
2019-02-05T23:42:43.627Z,30.10
2019-02-05T23:45:14.638Z,27.53
2019-02-05T23:47:44.872Z,25.67
2019-02-05T23:50:16.425Z,31.47
2019-02-05T23:52:47.094Z,24.70
2019-02-05T23:55:17.311Z,28.97
2019-02-05T23:57:47.492Z,40.23
